Главная страница
METAR-TAF:

METAR-TAF

Аэропорты :

Стур, Норвегия

широта: 59-48N, долгота: 005-21E, высота над уровнем моря: 49 м

Текущие метеонаблюдения

Эта сводка был подготовлена 22 часа и 41 минут назад, в 17:20 UTC
Ветер 5 Узел от западный, изменяющийся между юго-западный и северо-западный
Температура 18°C
Влажность 68%
Давление 1012 hPa
Видимость 10 км и более
небольшая облачность на высоте 4000 фута

METAR: ENSO 211720Z 26005KT 230V310 9999 FEW040 18/12 Q1012

Время: 18:01 (16:01 UTC)

Прогноз

Эта сводка был подготовлена 29 часа и 1 минут назад, в 11:00 UTC
Прогноз действительный с 21-го 12 UTC до 21-го 18 UTC
Ветер 8 Узел от южный-юго-западный
Видимость 10 км и более
небольшая облачность на высоте 3000 фута

TAF: ENSO 211100Z 2112/2118 20008KT 9999 FEW030

Метеонаблюдения и прогнозы для более 4000 аэропортов (сводки METAR и TAF).

Имеющиеся станции представлены на карте желтыми и красными точками.

Чтобы увидеть название станции, наведите на нее мышь.

Затем щелкните, чтобы увидеть метеонаблюдения и метеопрогнозы.

Управление картой: чтобы увеличить масштаб, щелкните зеленые кнопки с черным крестиком; чтобы уменьшить масштаб, щелкните зеленую кнопку с тире; для просмотра соседних карт щелкайте зеленые стрелки.


METAR-TAF: